createdAt,value
2022-10-21T00:01:30.304Z,9.10
2022-10-21T00:03:58.915Z,9.10
2022-10-21T00:06:27.446Z,9.10
2022-10-21T00:08:57.483Z,9.10
2022-10-21T00:11:26.107Z,9.20
2022-10-21T00:13:54.685Z,9.20
2022-10-21T00:16:23.294Z,9.10
2022-10-21T00:18:51.895Z,9.10
2022-10-21T00:21:23.060Z,9.10
2022-10-21T00:23:51.850Z,9.10
2022-10-21T00:26:22.223Z,9.00
2022-10-21T00:28:50.988Z,9.10
2022-10-21T00:31:19.616Z,9.10
2022-10-21T00:33:48.191Z,9.20
2022-10-21T00:36:17.172Z,9.30
2022-10-21T00:38:48.581Z,9.40
2022-10-21T00:41:21.230Z,9.40
2022-10-21T00:44:02.762Z,9.50
2022-10-21T00:46:45.691Z,9.40
2022-10-21T00:49:22.902Z,9.40
2022-10-21T00:51:57.499Z,9.30
2022-10-21T00:54:28.001Z,9.30
2022-10-21T00:56:59.316Z,9.30
2022-10-21T00:59:34.886Z,9.30
2022-10-21T01:02:04.084Z,9.30
2022-10-21T01:04:32.633Z,9.40
2022-10-21T01:07:03.791Z,9.40
2022-10-21T01:09:32.679Z,9.30
2022-10-21T01:12:06.473Z,9.30
2022-10-21T01:14:55.152Z,9.30
2022-10-21T01:17:47.671Z,9.40
2022-10-21T01:21:07.444Z,9.40
2022-10-21T01:24:23.464Z,9.40
2022-10-21T01:27:32.094Z,9.30
2022-10-21T01:30:43.996Z,9.40
2022-10-21T01:33:39.165Z,9.30
2022-10-21T01:36:32.083Z,9.20
2022-10-21T01:39:20.014Z,9.20
2022-10-21T01:42:00.877Z,9.20
2022-10-21T01:44:38.441Z,9.20
2022-10-21T01:47:17.593Z,9.20
2022-10-21T01:49:54.114Z,9.30
2022-10-21T01:52:23.557Z,9.30
2022-10-21T01:54:59.565Z,9.30
2022-10-21T01:57:36.782Z,9.20
2022-10-21T02:00:07.544Z,9.20
2022-10-21T02:02:47.618Z,9.30
2022-10-21T02:05:22.048Z,9.30
2022-10-21T02:07:51.595Z,9.30
2022-10-21T02:10:21.525Z,9.40
2022-10-21T02:12:54.709Z,9.40
2022-10-21T02:15:26.862Z,9.40
2022-10-21T02:18:04.204Z,9.40
2022-10-21T02:20:39.093Z,9.50
2022-10-21T02:23:13.529Z,9.40
2022-10-21T02:25:49.147Z,9.40
2022-10-21T02:28:19.193Z,9.40
2022-10-21T02:31:04.298Z,9.40
2022-10-21T02:33:52.023Z,9.30
2022-10-21T02:36:37.875Z,9.40
2022-10-21T02:39:16.543Z,9.40
2022-10-21T02:41:49.438Z,9.40
2022-10-21T02:44:18.802Z,9.40
2022-10-21T02:46:49.697Z,9.40
2022-10-21T02:49:19.923Z,9.40
2022-10-21T02:51:48.857Z,9.30
2022-10-21T02:54:17.585Z,9.40
2022-10-21T02:56:46.368Z,9.40
2022-10-21T02:59:15.141Z,9.40
2022-10-21T03:01:43.989Z,9.40
2022-10-21T03:04:12.763Z,9.40
2022-10-21T03:06:42.930Z,9.40
2022-10-21T03:09:11.887Z,9.40
2022-10-21T03:11:40.633Z,9.30
2022-10-21T03:14:09.387Z,9.30
2022-10-21T03:16:38.186Z,9.40
2022-10-21T03:19:06.938Z,9.40
2022-10-21T03:21:35.728Z,9.40
2022-10-21T03:24:11.017Z,9.30
2022-10-21T03:26:48.526Z,9.30
2022-10-21T03:29:17.445Z,9.30
2022-10-21T03:31:46.257Z,9.30
2022-10-21T03:34:15.007Z,9.40
2022-10-21T03:36:43.722Z,9.40
2022-10-21T03:39:14.326Z,9.40
2022-10-21T03:41:43.128Z,9.40
2022-10-21T03:44:12.012Z,9.40
2022-10-21T03:46:40.810Z,9.40
2022-10-21T03:49:18.276Z,9.50
2022-10-21T03:51:50.199Z,9.50
2022-10-21T03:54:20.737Z,9.50
2022-10-21T03:56:49.710Z,9.50
2022-10-21T03:59:18.925Z,9.60
2022-10-21T04:01:47.737Z,9.60
2022-10-21T04:04:16.610Z,9.60
2022-10-21T04:06:45.345Z,9.60
2022-10-21T04:09:14.167Z,9.60
2022-10-21T04:11:44.488Z,9.70
2022-10-21T04:14:15.397Z,9.70
2022-10-21T04:16:46.134Z,9.70
2022-10-21T04:19:20.558Z,9.70
2022-10-21T04:21:49.441Z,9.70
2022-10-21T04:24:18.434Z,9.70
2022-10-21T04:26:48.609Z,9.70
2022-10-21T04:29:17.323Z,9.70
2022-10-21T04:31:46.394Z,9.60
2022-10-21T04:34:15.849Z,9.60
2022-10-21T04:36:44.833Z,9.60
2022-10-21T04:39:13.743Z,9.60
2022-10-21T04:41:42.513Z,9.50
2022-10-21T04:44:13.044Z,9.60
2022-10-21T04:46:41.853Z,9.50
2022-10-21T04:49:10.572Z,9.50
2022-10-21T04:51:39.436Z,9.50
2022-10-21T04:54:08.115Z,9.50
2022-10-21T04:56:36.962Z,9.50
2022-10-21T04:59:05.693Z,9.60
2022-10-21T05:01:35.973Z,9.50
2022-10-21T05:04:04.983Z,9.40
2022-10-21T05:06:33.930Z,9.40
2022-10-21T05:09:02.736Z,9.40
2022-10-21T05:11:31.643Z,9.40
2022-10-21T05:14:00.440Z,9.50
2022-10-21T05:16:29.329Z,9.50
2022-10-21T05:19:00.646Z,9.50
2022-10-21T05:21:29.501Z,9.40
2022-10-21T05:23:58.444Z,9.40
2022-10-21T05:26:29.012Z,9.50
2022-10-21T05:28:58.042Z,9.50
2022-10-21T05:31:27.620Z,9.50
2022-10-21T05:33:58.642Z,9.50
2022-10-21T05:36:27.712Z,9.50
2022-10-21T05:38:56.458Z,9.50
2022-10-21T05:41:25.294Z,9.50
2022-10-21T05:43:53.985Z,9.50
2022-10-21T05:46:23.503Z,9.60
2022-10-21T05:48:52.257Z,9.60
2022-10-21T05:51:26.510Z,9.60
2022-10-21T05:53:55.509Z,9.70
2022-10-21T05:56:24.406Z,9.70
2022-10-21T05:58:53.304Z,9.70
2022-10-21T06:01:22.155Z,9.80
2022-10-21T06:03:50.985Z,9.80
2022-10-21T06:06:21.252Z,9.80
2022-10-21T06:08:50.103Z,9.90
2022-10-21T06:11:21.826Z,9.90
2022-10-21T06:13:50.761Z,9.90
2022-10-21T06:16:19.773Z,10.00
2022-10-21T06:18:48.597Z,10.00
2022-10-21T06:21:17.452Z,10.10
2022-10-21T06:23:47.854Z,10.10
2022-10-21T06:26:17.990Z,10.10
2022-10-21T06:28:46.795Z,10.20
2022-10-21T06:31:21.803Z,10.20
2022-10-21T06:33:50.935Z,10.30
2022-10-21T06:36:19.701Z,10.30
2022-10-21T06:38:49.978Z,10.50
2022-10-21T06:41:19.067Z,10.50
2022-10-21T06:43:47.873Z,10.50
2022-10-21T06:46:17.827Z,10.50
2022-10-21T06:48:46.567Z,10.50
2022-10-21T06:51:20.497Z,10.50
2022-10-21T06:53:55.978Z,10.50
2022-10-21T06:56:26.586Z,10.50
2022-10-21T06:58:58.791Z,10.60
2022-10-21T07:01:48.158Z,10.60
2022-10-21T07:04:21.973Z,10.60
2022-10-21T07:06:50.825Z,10.60
2022-10-21T07:09:21.166Z,10.70
2022-10-21T07:11:50.138Z,10.80
2022-10-21T07:14:19.196Z,10.80
2022-10-21T07:16:48.410Z,10.90
2022-10-21T07:19:17.276Z,11.00
2022-10-21T07:21:46.312Z,11.20
2022-10-21T07:24:18.718Z,11.20
2022-10-21T07:26:50.214Z,11.20
2022-10-21T07:29:20.094Z,11.30
2022-10-21T07:31:49.039Z,11.20
2022-10-21T07:34:19.015Z,11.30
2022-10-21T07:56:54.920Z,11.40
